Time;durP1;ratioP1;P1;durP2;ratioP2;P2;SDS_P1;SDS_P2;PMS_P1;PMS_P2;Temp;Humidity;BMP_temperature;BMP_pressure;BME280_temperature;BME280_humidity;BME280_pressure;Samples;Min_cycle;Max_cycle;Signal;HPM_P1;HPM_P2
2022/11/19 00:01:02;;;;;;;24.55;11.90;;;;;;;;;;5075957;28;20050;-74
2022/11/19 00:03:30;;;;;;;28.30;12.20;;;;;;;;;;5077651;28;21349;-74
2022/11/19 00:06:01;;;;;;;24.10;11.27;;;;;;;;;;5071709;28;20490;-75
2022/11/19 00:08:28;;;;;;;25.75;11.68;;;;;;;;;;5074299;28;20114;-75
2022/11/19 00:10:55;;;;;;;30.88;12.13;;;;;;;;;;5077154;28;20049;-75
2022/11/19 00:13:22;;;;;;;29.65;12.07;;;;;;;;;;5074094;28;20052;-74
2022/11/19 00:15:49;;;;;;;30.48;12.50;;;;;;;;;;5071594;28;20060;-74
2022/11/19 00:18:16;;;;;;;26.00;11.15;;;;;;;;;;5075490;28;20055;-75
2022/11/19 00:20:43;;;;;;;27.08;11.80;;;;;;;;;;5078158;28;20049;-74
2022/11/19 00:23:10;;;;;;;22.67;11.85;;;;;;;;;;5077108;28;20060;-74
2022/11/19 00:25:38;;;;;;;23.17;12.20;;;;;;;;;;5071901;28;20045;-75
2022/11/19 00:28:05;;;;;;;24.48;11.60;;;;;;;;;;5080667;28;20494;-75
2022/11/19 00:30:32;;;;;;;25.20;11.38;;;;;;;;;;5071609;28;20060;-75
2022/11/19 00:33:14;;;;;;;25.55;11.60;;;;;;;;;;5075492;28;20112;-74
2022/11/19 00:35:41;;;;;;;26.73;11.63;;;;;;;;;;5077164;28;20092;-74
2022/11/19 00:38:08;;;;;;;23.20;11.48;;;;;;;;;;5078651;28;20059;-75
2022/11/19 00:40:35;;;;;;;30.63;10.82;;;;;;;;;;5073017;28;20045;-75
2022/11/19 00:45:49;;;;;;;21.23;11.10;;;;;;;;;;5075093;28;20103;-75
2022/11/19 00:48:16;;;;;;;21.73;9.60;;;;;;;;;;5068867;28;20053;-75
2022/11/19 00:50:43;;;;;;;18.27;9.07;;;;;;;;;;5079404;28;20914;-75
2022/11/19 00:53:10;;;;;;;23.70;11.38;;;;;;;;;;5062469;28;20049;-75
2022/11/19 00:55:37;;;;;;;20.08;10.93;;;;;;;;;;5075310;28;20068;-74
2022/11/19 00:58:04;;;;;;;30.73;11.95;;;;;;;;;;5064506;28;20118;-75
2022/11/19 01:00:31;;;;;;;20.23;10.43;;;;;;;;;;5066306;28;20062;-75
2022/11/19 01:02:58;;;;;;;21.58;10.48;;;;;;;;;;5080618;28;20102;-75
2022/11/19 01:05:26;;;;;;;23.35;10.75;;;;;;;;;;5076116;28;20056;-75
2022/11/19 01:07:53;;;;;;;22.27;9.90;;;;;;;;;;5071786;28;20080;-74
2022/11/19 01:10:20;;;;;;;21.52;9.95;;;;;;;;;;5076721;28;20123;-75
2022/11/19 01:15:37;;;;;;;24.13;11.50;;;;;;;;;;5029854;28;20059;-74
2022/11/19 01:18:04;;;;;;;21.77;10.02;;;;;;;;;;5081733;28;20576;-74
2022/11/19 01:20:31;;;;;;;25.10;11.82;;;;;;;;;;5079146;28;20045;-75
2022/11/19 01:22:59;;;;;;;25.95;12.40;;;;;;;;;;5074182;28;20057;-75
2022/11/19 01:25:26;;;;;;;22.38;12.68;;;;;;;;;;5080115;28;20577;-74
2022/11/19 01:27:53;;;;;;;24.77;10.95;;;;;;;;;;5076137;28;20052;-75
2022/11/19 01:30:20;;;;;;;22.00;11.95;;;;;;;;;;5076992;28;20142;-75
2022/11/19 01:32:47;;;;;;;24.95;12.15;;;;;;;;;;5074592;28;20033;-74
2022/11/19 01:35:14;;;;;;;25.05;12.63;;;;;;;;;;5076294;28;20053;-75
2022/11/19 01:37:41;;;;;;;21.45;12.38;;;;;;;;;;5071785;28;20049;-75
2022/11/19 01:40:09;;;;;;;24.23;12.95;;;;;;;;;;5071303;28;20060;-75
2022/11/19 01:42:49;;;;;;;22.05;11.98;;;;;;;;;;5070885;28;20057;-74
2022/11/19 01:45:19;;;;;;;27.15;12.75;;;;;;;;;;5077476;28;20879;-74
2022/11/19 01:47:47;;;;;;;20.25;11.32;;;;;;;;;;5073276;28;20057;-75
2022/11/19 01:50:14;;;;;;;21.10;12.57;;;;;;;;;;5073311;28;20053;-75
2022/11/19 01:52:41;;;;;;;20.27;12.55;;;;;;;;;;5080868;28;20522;-75
2022/11/19 01:55:09;;;;;;;22.42;12.15;;;;;;;;;;5073985;28;20056;-75
2022/11/19 01:57:38;;;;;;;21.23;12.25;;;;;;;;;;5081898;28;20053;-74
2022/11/19 02:00:05;;;;;;;24.67;12.10;;;;;;;;;;5075998;28;20632;-75
2022/11/19 02:02:33;;;;;;;25.13;11.60;;;;;;;;;;5076339;28;20068;-75
2022/11/19 02:05:01;;;;;;;22.30;11.63;;;;;;;;;;5072904;28;20085;-75
2022/11/19 02:07:31;;;;;;;19.13;10.68;;;;;;;;;;5080883;28;20056;-74
2022/11/19 02:10:00;;;;;;;19.05;10.90;;;;;;;;;;5080551;28;20052;-75
2022/11/19 02:12:36;;;;;;;17.02;9.73;;;;;;;;;;5075926;28;20057;-75
2022/11/19 02:15:03;;;;;;;14.57;8.45;;;;;;;;;;5080592;28;20053;-74
2022/11/19 02:17:45;;;;;;;22.20;13.55;;;;;;;;;;5078149;28;20049;-75
2022/11/19 02:20:31;;;;;;;25.33;12.88;;;;;;;;;;5073744;28;20053;-75
2022/11/19 02:23:00;;;;;;;23.95;12.80;;;;;;;;;;5076831;28;20588;-75
2022/11/19 02:26:03;;;;;;;25.67;13.43;;;;;;;;;;5079308;28;20102;-75
2022/11/19 02:28:47;;;;;;;22.02;12.82;;;;;;;;;;4988242;28;20058;-75
2022/11/19 02:31:20;;;;;;;23.58;13.68;;;;;;;;;;5004599;28;20109;-75
2022/11/19 02:33:55;;;;;;;21.65;11.88;;;;;;;;;;5005593;28;20609;-74
2022/11/19 02:36:25;;;;;;;22.92;12.38;;;;;;;;;;5007080;28;20058;-75
2022/11/19 02:39:12;;;;;;;30.27;14.25;;;;;;;;;;5006986;28;20129;-74
2022/11/19 02:41:44;;;;;;;14.90;7.47;;;;;;;;;;4987616;28;20127;-75
2022/11/19 02:47:02;;;;;;;26.83;13.27;;;;;;;;;;5006550;28;20061;-75
2022/11/19 02:49:31;;;;;;;31.23;14.98;;;;;;;;;;5000430;28;20089;-74
2022/11/19 02:51:59;;;;;;;25.20;14.30;;;;;;;;;;4998796;28;20854;-75
2022/11/19 02:54:27;;;;;;;26.90;14.45;;;;;;;;;;5009107;28;20058;-74
2022/11/19 02:56:57;;;;;;;33.03;15.25;;;;;;;;;;5004321;28;20057;-74
2022/11/19 03:05:06;;;;;;;34.63;15.15;;;;;;;;;;5078080;28;20123;-75
2022/11/19 03:07:34;;;;;;;28.25;15.70;;;;;;;;;;5072080;28;20061;-75
2022/11/19 03:10:04;;;;;;;27.15;15.30;;;;;;;;;;5074848;28;20049;-74
2022/11/19 03:12:40;;;;;;;29.77;14.43;;;;;;;;;;5074458;28;20461;-75
2022/11/19 03:18:15;;;;;;;27.95;16.20;;;;;;;;;;5074435;28;20561;-74
2022/11/19 03:20:52;;;;;;;30.52;16.13;;;;;;;;;;5075817;28;20106;-75
2022/11/19 03:23:26;;;;;;;31.10;16.83;;;;;;;;;;5079290;28;20057;-74
2022/11/19 03:25:56;;;;;;;29.02;16.67;;;;;;;;;;5076389;28;21056;-75
2022/11/19 03:28:25;;;;;;;28.15;15.45;;;;;;;;;;5072238;28;20053;-74
2022/11/19 03:30:53;;;;;;;30.27;17.05;;;;;;;;;;5080703;28;20053;-74
2022/11/19 03:33:30;;;;;;;30.50;16.90;;;;;;;;;;5085363;28;20055;-74
2022/11/19 03:36:00;;;;;;;18.23;10.27;;;;;;;;;;5081232;28;20060;-74
2022/11/19 03:38:30;;;;;;;25.85;15.45;;;;;;;;;;5077540;28;20111;-74
2022/11/19 03:40:57;;;;;;;26.42;15.70;;;;;;;;;;5073804;28;20126;-74
2022/11/19 03:43:27;;;;;;;33.90;18.02;;;;;;;;;;5078617;28;20191;-75
2022/11/19 03:45:56;;;;;;;28.80;17.02;;;;;;;;;;5078812;28;20045;-74
2022/11/19 03:48:24;;;;;;;28.13;15.98;;;;;;;;;;5081291;28;20059;-75
2022/11/19 03:50:57;;;;;;;30.38;16.70;;;;;;;;;;5076619;28;20048;-75
2022/11/19 03:53:25;;;;;;;27.60;16.80;;;;;;;;;;5076260;28;20048;-74
2022/11/19 03:56:01;;;;;;;30.23;16.90;;;;;;;;;;5075452;28;20057;-74
2022/11/19 03:58:28;;;;;;;25.35;14.27;;;;;;;;;;5080439;28;20552;-74
2022/11/19 04:00:55;;;;;;;25.00;13.20;;;;;;;;;;5076272;28;20049;-75
2022/11/19 04:03:23;;;;;;;23.92;13.75;;;;;;;;;;5069463;28;20059;-74
2022/11/19 04:05:50;;;;;;;21.80;12.02;;;;;;;;;;5073162;28;20099;-75
2022/11/19 04:08:17;;;;;;;28.35;15.52;;;;;;;;;;5079363;28;20056;-75
2022/11/19 04:10:44;;;;;;;26.42;15.02;;;;;;;;;;5090827;28;20052;-74
2022/11/19 04:13:11;;;;;;;23.48;13.68;;;;;;;;;;5084029;28;20490;-75
2022/11/19 04:15:38;;;;;;;29.05;15.80;;;;;;;;;;5080696;28;20505;-75
2022/11/19 04:18:05;;;;;;;26.52;15.00;;;;;;;;;;5082617;28;20101;-74
2022/11/19 04:20:32;;;;;;;23.95;13.10;;;;;;;;;;5080529;28;20048;-74
2022/11/19 04:22:59;;;;;;;28.55;15.55;;;;;;;;;;5060955;28;20060;-75
2022/11/19 04:25:26;;;;;;;25.35;15.27;;;;;;;;;;5075667;28;20529;-74
2022/11/19 04:27:53;;;;;;;19.55;11.68;;;;;;;;;;5071856;28;20061;-75
2022/11/19 04:30:21;;;;;;;27.88;15.88;;;;;;;;;;5082238;28;20084;-75
2022/11/19 04:32:48;;;;;;;27.95;15.20;;;;;;;;;;5077987;28;20048;-75
2022/11/19 04:35:17;;;;;;;26.13;14.77;;;;;;;;;;5076897;28;20465;-74
2022/11/19 04:37:47;;;;;;;31.27;16.08;;;;;;;;;;5072715;28;20560;-75
2022/11/19 04:40:14;;;;;;;25.60;15.25;;;;;;;;;;5080438;28;20110;-75
2022/11/19 04:42:41;;;;;;;26.05;14.90;;;;;;;;;;5075602;28;20060;-75
2022/11/19 04:45:08;;;;;;;26.98;14.88;;;;;;;;;;5060067;28;20064;-74
2022/11/19 04:47:36;;;;;;;27.88;15.50;;;;;;;;;;5065578;28;20481;-74
2022/11/19 04:50:03;;;;;;;29.42;16.52;;;;;;;;;;5072613;28;20536;-75
2022/11/19 04:52:31;;;;;;;26.75;14.57;;;;;;;;;;5076489;28;20045;-75
2022/11/19 04:55:06;;;;;;;32.15;15.82;;;;;;;;;;5077337;28;20080;-74
2022/11/19 04:57:33;;;;;;;25.70;14.93;;;;;;;;;;5074258;28;20560;-74
2022/11/19 05:00:00;;;;;;;28.35;15.02;;;;;;;;;;5079218;28;20051;-74
2022/11/19 05:02:27;;;;;;;25.08;15.00;;;;;;;;;;5082938;28;20738;-75
2022/11/19 05:04:54;;;;;;;17.80;8.85;;;;;;;;;;5072671;28;20064;-75
2022/11/19 05:07:21;;;;;;;29.58;15.75;;;;;;;;;;5072510;28;20498;-75
2022/11/19 05:09:48;;;;;;;22.95;12.93;;;;;;;;;;5060003;28;20052;-75
2022/11/19 05:12:15;;;;;;;21.20;9.23;;;;;;;;;;5085746;28;20049;-74
2022/11/19 05:14:43;;;;;;;18.38;10.35;;;;;;;;;;5070616;28;20056;-75
2022/11/19 05:17:10;;;;;;;22.30;13.20;;;;;;;;;;5068137;28;20052;-75
2022/11/19 05:19:37;;;;;;;25.70;14.02;;;;;;;;;;5076463;28;20498;-74
2022/11/19 05:22:04;;;;;;;28.00;14.50;;;;;;;;;;5073584;28;20516;-75
2022/11/19 05:24:32;;;;;;;17.00;9.38;;;;;;;;;;5074563;28;20057;-75
2022/11/19 05:26:59;;;;;;;29.27;16.08;;;;;;;;;;5081233;28;20059;-75
2022/11/19 05:29:26;;;;;;;28.38;15.85;;;;;;;;;;5070188;28;20177;-75
2022/11/19 05:31:53;;;;;;;29.15;14.77;;;;;;;;;;5078848;28;20057;-75
2022/11/19 05:34:20;;;;;;;29.20;15.65;;;;;;;;;;5075699;28;20056;-75
2022/11/19 05:36:47;;;;;;;26.65;14.60;;;;;;;;;;5068549;28;20052;-75
2022/11/19 05:39:14;;;;;;;17.98;9.52;;;;;;;;;;5067507;28;20055;-74
2022/11/19 05:41:47;;;;;;;22.35;11.90;;;;;;;;;;5079461;28;20127;-74
2022/11/19 05:44:15;;;;;;;28.40;14.73;;;;;;;;;;5074664;28;20060;-75
2022/11/19 05:46:42;;;;;;;32.05;16.45;;;;;;;;;;5077517;28;20886;-75
2022/11/19 05:49:09;;;;;;;27.40;13.80;;;;;;;;;;5078030;28;20053;-74
2022/11/19 05:51:36;;;;;;;25.95;13.30;;;;;;;;;;5076558;28;20051;-74
2022/11/19 05:54:03;;;;;;;23.80;13.32;;;;;;;;;;5079191;28;20053;-74
2022/11/19 05:56:30;;;;;;;24.17;13.93;;;;;;;;;;5078696;28;20102;-74
2022/11/19 05:58:57;;;;;;;25.42;15.07;;;;;;;;;;5089264;28;20063;-74
2022/11/19 06:01:28;;;;;;;26.90;15.32;;;;;;;;;;5081093;28;20053;-75
2022/11/19 06:03:55;;;;;;;25.70;14.25;;;;;;;;;;5076957;28;20053;-74
2022/11/19 06:06:24;;;;;;;28.13;15.38;;;;;;;;;;5080200;28;20055;-75
2022/11/19 06:08:51;;;;;;;24.88;14.38;;;;;;;;;;5084877;28;20056;-75
2022/11/19 06:14:04;;;;;;;26.05;13.10;;;;;;;;;;5079573;28;20507;-74
2022/11/19 06:16:31;;;;;;;26.58;14.52;;;;;;;;;;5083713;28;20110;-74
2022/11/19 06:18:58;;;;;;;22.63;11.95;;;;;;;;;;5086238;28;20056;-75
2022/11/19 06:21:25;;;;;;;28.08;14.45;;;;;;;;;;5082941;28;20910;-74
2022/11/19 06:23:52;;;;;;;25.33;14.70;;;;;;;;;;5074852;28;20603;-75
2022/11/19 06:26:23;;;;;;;28.38;15.05;;;;;;;;;;5081595;28;20052;-74
2022/11/19 06:28:50;;;;;;;26.52;14.20;;;;;;;;;;5072454;28;20045;-75
2022/11/19 06:31:18;;;;;;;25.70;14.20;;;;;;;;;;5082743;28;20506;-74
2022/11/19 06:33:45;;;;;;;21.40;10.35;;;;;;;;;;5082922;28;20045;-75
2022/11/19 06:36:12;;;;;;;27.17;14.30;;;;;;;;;;5085068;28;20049;-75
2022/11/19 06:38:39;;;;;;;21.13;11.20;;;;;;;;;;5076786;28;20785;-75
2022/11/19 06:41:06;;;;;;;25.48;13.88;;;;;;;;;;5079315;28;20048;-75
2022/11/19 06:43:33;;;;;;;23.38;13.68;;;;;;;;;;5077728;28;20056;-74
2022/11/19 06:46:00;;;;;;;28.13;14.85;;;;;;;;;;5079488;28;20395;-76
2022/11/19 06:48:27;;;;;;;29.33;14.50;;;;;;;;;;5076672;28;20522;-75
2022/11/19 06:50:55;;;;;;;24.77;12.27;;;;;;;;;;5071176;28;20405;-76
2022/11/19 06:53:22;;;;;;;24.88;14.57;;;;;;;;;;5086688;28;21287;-75
2022/11/19 06:55:55;;;;;;;23.42;12.93;;;;;;;;;;5073702;28;20048;-75
2022/11/19 06:58:22;;;;;;;26.43;14.10;;;;;;;;;;5076406;28;20870;-75
2022/11/19 07:00:49;;;;;;;27.00;14.18;;;;;;;;;;5087182;28;20102;-76
2022/11/19 07:03:16;;;;;;;28.95;14.93;;;;;;;;;;5077809;28;20052;-75
2022/11/19 07:05:43;;;;;;;25.58;13.75;;;;;;;;;;5077928;28;20731;-75
2022/11/19 07:08:10;;;;;;;25.50;13.48;;;;;;;;;;5079786;28;20053;-75
2022/11/19 07:10:37;;;;;;;21.00;11.00;;;;;;;;;;5074477;28;20059;-76
2022/11/19 07:13:05;;;;;;;21.77;11.10;;;;;;;;;;5076962;28;20049;-75
2022/11/19 07:15:32;;;;;;;16.45;9.50;;;;;;;;;;5078966;28;20136;-75
2022/11/19 07:18:00;;;;;;;16.05;9.13;;;;;;;;;;5076082;28;20426;-76
2022/11/19 07:20:27;;;;;;;25.00;11.43;;;;;;;;;;5080962;28;20799;-75
2022/11/19 07:22:54;;;;;;;22.05;12.32;;;;;;;;;;5075552;28;20406;-75
2022/11/19 07:25:25;;;;;;;27.63;14.40;;;;;;;;;;5080954;28;20053;-75
2022/11/19 07:27:52;;;;;;;24.73;12.32;;;;;;;;;;5073628;28;20048;-75
2022/11/19 07:30:19;;;;;;;26.67;13.55;;;;;;;;;;5077964;28;20056;-75
2022/11/19 07:32:46;;;;;;;15.95;8.70;;;;;;;;;;5080460;28;20082;-74
2022/11/19 07:35:13;;;;;;;21.95;12.05;;;;;;;;;;5075768;28;20059;-75
2022/11/19 07:37:40;;;;;;;19.25;9.60;;;;;;;;;;5077166;28;20091;-75
2022/11/19 07:40:09;;;;;;;26.83;13.43;;;;;;;;;;5077493;28;20895;-75
2022/11/19 07:42:49;;;;;;;28.23;14.50;;;;;;;;;;5075179;28;20148;-75
2022/11/19 07:45:17;;;;;;;25.08;13.35;;;;;;;;;;5079198;28;20057;-75
2022/11/19 07:47:44;;;;;;;23.17;12.43;;;;;;;;;;5078151;28;20057;-75
2022/11/19 07:50:11;;;;;;;28.10;14.23;;;;;;;;;;5084552;28;20508;-75
2022/11/19 07:52:39;;;;;;;26.55;14.43;;;;;;;;;;5080370;28;20048;-75
2022/11/19 07:55:06;;;;;;;21.90;10.70;;;;;;;;;;5079342;28;20052;-74
2022/11/19 07:57:33;;;;;;;20.80;11.45;;;;;;;;;;5080068;28;20049;-74
2022/11/19 08:00:00;;;;;;;25.63;14.43;;;;;;;;;;5080234;28;20053;-74
2022/11/19 08:02:27;;;;;;;16.50;8.52;;;;;;;;;;5082191;28;20587;-74
2022/11/19 08:04:54;;;;;;;24.95;13.25;;;;;;;;;;5067678;28;20400;-74
2022/11/19 08:07:21;;;;;;;22.63;12.85;;;;;;;;;;5082150;28;20104;-75
2022/11/19 08:09:49;;;;;;;23.65;12.73;;;;;;;;;;5082936;28;20049;-74
2022/11/19 08:12:16;;;;;;;26.15;12.18;;;;;;;;;;5073803;28;20049;-74
2022/11/19 08:14:43;;;;;;;26.13;12.68;;;;;;;;;;5082376;28;20051;-75
2022/11/19 08:19:56;;;;;;;24.40;12.52;;;;;;;;;;5084200;28;20890;-74
2022/11/19 08:22:23;;;;;;;25.98;14.25;;;;;;;;;;5064082;28;20049;-74
2022/11/19 08:24:50;;;;;;;23.80;13.30;;;;;;;;;;5083804;28;20053;-74
2022/11/19 08:27:18;;;;;;;23.85;12.85;;;;;;;;;;5075856;28;20049;-74
2022/11/19 08:29:45;;;;;;;23.67;13.05;;;;;;;;;;5087054;28;20441;-74
2022/11/19 08:32:12;;;;;;;26.23;14.13;;;;;;;;;;5079478;28;20049;-75
2022/11/19 08:34:39;;;;;;;23.52;12.32;;;;;;;;;;5082993;28;20057;-74
2022/11/19 08:37:06;;;;;;;21.92;9.95;;;;;;;;;;5079117;28;20509;-74
2022/11/19 08:39:33;;;;;;;25.88;13.63;;;;;;;;;;5086221;28;20570;-75
2022/11/19 08:44:46;;;;;;;11.77;6.10;;;;;;;;;;5075496;28;20069;-75
2022/11/19 08:47:13;;;;;;;20.48;11.75;;;;;;;;;;5075783;28;21088;-74
2022/11/19 08:49:40;;;;;;;24.70;13.13;;;;;;;;;;5076883;28;20083;-74
2022/11/19 08:52:07;;;;;;;25.60;13.77;;;;;;;;;;5075788;28;20048;-74
2022/11/19 08:54:34;;;;;;;23.55;13.07;;;;;;;;;;5079740;28;20523;-75
2022/11/19 08:57:01;;;;;;;22.45;11.85;;;;;;;;;;5056757;28;20049;-75
2022/11/19 08:59:28;;;;;;;20.83;11.32;;;;;;;;;;5066009;28;20103;-74
2022/11/19 09:01:55;;;;;;;20.50;10.27;;;;;;;;;;5077816;28;20049;-74
2022/11/19 09:04:22;;;;;;;25.90;13.23;;;;;;;;;;5074003;28;20052;-74
2022/11/19 09:06:49;;;;;;;25.77;11.43;;;;;;;;;;5074143;28;20048;-74
2022/11/19 09:09:16;;;;;;;21.10;10.63;;;;;;;;;;5076876;28;20048;-75
2022/11/19 09:11:44;;;;;;;22.15;11.93;;;;;;;;;;5077639;28;20056;-75
2022/11/19 09:14:11;;;;;;;21.45;12.07;;;;;;;;;;5075815;28;20828;-75
2022/11/19 09:16:38;;;;;;;7.25;4.47;;;;;;;;;;5077927;28;20052;-75
2022/11/19 09:19:05;;;;;;;20.67;11.63;;;;;;;;;;5082828;28;20879;-75
2022/11/19 09:21:32;;;;;;;20.83;11.13;;;;;;;;;;5074918;28;20048;-75
2022/11/19 09:23:59;;;;;;;22.15;12.10;;;;;;;;;;5064786;28;20075;-75
2022/11/19 09:26:26;;;;;;;19.63;10.50;;;;;;;;;;5077347;28;20052;-75
2022/11/19 09:28:53;;;;;;;22.75;12.55;;;;;;;;;;5074648;28;20049;-75
2022/11/19 09:31:20;;;;;;;21.08;11.50;;;;;;;;;;5076197;28;20056;-75
2022/11/19 09:33:49;;;;;;;18.85;10.43;;;;;;;;;;5072663;28;20049;-75
2022/11/19 09:36:17;;;;;;;18.50;10.32;;;;;;;;;;5071483;28;20064;-75
2022/11/19 09:38:44;;;;;;;16.77;10.25;;;;;;;;;;5078091;28;20890;-75
2022/11/19 09:41:17;;;;;;;20.35;10.48;;;;;;;;;;5084568;28;20048;-75
2022/11/19 09:44:00;;;;;;;20.13;10.18;;;;;;;;;;5078988;28;20482;-75
2022/11/19 09:46:45;;;;;;;19.85;10.63;;;;;;;;;;5077880;28;20103;-75
2022/11/19 09:49:16;;;;;;;16.30;9.60;;;;;;;;;;5079831;28;20171;-75
2022/11/19 09:51:45;;;;;;;19.35;10.13;;;;;;;;;;5079429;28;20045;-75
2022/11/19 09:54:15;;;;;;;19.42;10.63;;;;;;;;;;5078794;28;20052;-75
2022/11/19 09:56:44;;;;;;;22.27;11.13;;;;;;;;;;5077954;28;20056;-75
2022/11/19 09:59:29;;;;;;;21.23;12.02;;;;;;;;;;5077550;28;20053;-75
2022/11/19 10:01:57;;;;;;;19.52;10.65;;;;;;;;;;5076571;28;20557;-75
2022/11/19 10:04:34;;;;;;;17.70;9.80;;;;;;;;;;5079535;28;20045;-75
2022/11/19 10:07:14;;;;;;;14.98;8.73;;;;;;;;;;5078118;28;20052;-74
2022/11/19 10:10:00;;;;;;;19.50;9.95;;;;;;;;;;5082149;28;20056;-75
2022/11/19 10:12:27;;;;;;;9.77;5.22;;;;;;;;;;5078831;28;20052;-75
2022/11/19 10:15:00;;;;;;;16.80;9.15;;;;;;;;;;5087476;28;20049;-74
2022/11/19 10:17:40;;;;;;;16.70;9.77;;;;;;;;;;5082519;28;21017;-75
2022/11/19 10:20:07;;;;;;;14.13;8.88;;;;;;;;;;5058872;28;20057;-74
2022/11/19 10:22:40;;;;;;;16.30;9.45;;;;;;;;;;5076291;28;20056;-75
2022/11/19 10:25:17;;;;;;;17.35;9.63;;;;;;;;;;5073069;28;20057;-75
2022/11/19 10:27:49;;;;;;;15.90;9.35;;;;;;;;;;5073585;28;20059;-75
2022/11/19 10:30:19;;;;;;;17.17;9.43;;;;;;;;;;5072139;28;20056;-75
2022/11/19 10:32:55;;;;;;;17.83;8.65;;;;;;;;;;5075618;28;20099;-75
2022/11/19 10:35:27;;;;;;;15.82;8.98;;;;;;;;;;5081635;28;20059;-75
2022/11/19 10:37:57;;;;;;;13.55;7.20;;;;;;;;;;5073949;28;20107;-75
2022/11/19 10:40:25;;;;;;;16.02;8.95;;;;;;;;;;5082633;28;20111;-75
2022/11/19 10:43:13;;;;;;;14.90;8.63;;;;;;;;;;5081392;28;20054;-75
2022/11/19 10:45:44;;;;;;;16.92;10.00;;;;;;;;;;5060724;28;20062;-75
2022/11/19 10:48:22;;;;;;;12.80;6.78;;;;;;;;;;5068836;28;20060;-75
2022/11/19 10:50:50;;;;;;;17.05;8.75;;;;;;;;;;5076674;28;20052;-75
2022/11/19 10:53:24;;;;;;;17.42;9.07;;;;;;;;;;5081688;28;20644;-75
2022/11/19 10:55:54;;;;;;;15.38;9.00;;;;;;;;;;5080416;28;20063;-75
2022/11/19 10:58:25;;;;;;;15.07;8.27;;;;;;;;;;5080193;28;20060;-75
2022/11/19 11:00:54;;;;;;;14.13;8.35;;;;;;;;;;5084715;28;20732;-75
2022/11/19 11:03:23;;;;;;;14.30;6.90;;;;;;;;;;5084626;28;20750;-75
2022/11/19 11:06:09;;;;;;;14.10;7.22;;;;;;;;;;5079130;28;20399;-75
2022/11/19 11:08:49;;;;;;;11.57;6.00;;;;;;;;;;5088641;28;20086;-74
2022/11/19 11:11:24;;;;;;;14.20;8.50;;;;;;;;;;5072683;28;20055;-75
2022/11/19 11:14:53;;;;;;;15.25;7.28;;;;;;;;;;5057138;28;20053;-75
2022/11/19 11:16:48;;;;;;;13.48;7.78;;;;;;;;;;5066898;28;20052;-75
2022/11/19 11:19:19;;;;;;;6.40;3.78;;;;;;;;;;5072507;28;20497;-75
2022/11/19 11:21:50;;;;;;;12.18;7.15;;;;;;;;;;5073547;28;20610;-75
2022/11/19 11:24:21;;;;;;;11.35;7.07;;;;;;;;;;5067278;28;20056;-74
2022/11/19 11:27:13;;;;;;;13.57;7.33;;;;;;;;;;5071467;28;20049;-75
2022/11/19 11:29:40;;;;;;;11.73;5.82;;;;;;;;;;5075426;28;20807;-74
2022/11/19 11:32:25;;;;;;;12.00;7.18;;;;;;;;;;5069375;28;20053;-75
2022/11/19 11:34:55;;;;;;;15.73;8.13;;;;;;;;;;5070887;28;20056;-75
2022/11/19 11:37:23;;;;;;;15.30;7.50;;;;;;;;;;5077808;28;20082;-75
2022/11/19 11:39:55;;;;;;;7.30;4.40;;;;;;;;;;5083512;28;20131;-75
2022/11/19 11:42:27;;;;;;;12.80;7.43;;;;;;;;;;5078512;28;20055;-75
2022/11/19 11:44:56;;;;;;;10.32;5.85;;;;;;;;;;5070937;28;20061;-75
2022/11/19 11:47:31;;;;;;;11.05;6.90;;;;;;;;;;5074500;28;20079;-75
2022/11/19 11:50:11;;;;;;;11.27;5.18;;;;;;;;;;5072722;28;20513;-75
2022/11/19 11:52:40;;;;;;;13.73;7.65;;;;;;;;;;5077573;28;20053;-75
2022/11/19 11:55:16;;;;;;;11.93;7.53;;;;;;;;;;5068281;28;20056;-74
2022/11/19 11:57:52;;;;;;;9.48;5.35;;;;;;;;;;5075228;28;20516;-75
2022/11/19 12:00:29;;;;;;;14.52;7.82;;;;;;;;;;5075243;28;20053;-75
2022/11/19 12:03:19;;;;;;;13.77;6.20;;;;;;;;;;5071748;28;20053;-75
2022/11/19 12:05:46;;;;;;;13.85;7.25;;;;;;;;;;5064876;28;20095;-75
2022/11/19 12:08:35;;;;;;;11.80;6.75;;;;;;;;;;5071753;28;20573;-75
2022/11/19 12:11:11;;;;;;;10.57;6.20;;;;;;;;;;5051765;28;20053;-74
2022/11/19 12:13:44;;;;;;;10.90;6.10;;;;;;;;;;5077707;28;20048;-75
2022/11/19 12:16:30;;;;;;;4.18;2.55;;;;;;;;;;5076036;28;20075;-74
2022/11/19 12:19:16;;;;;;;7.78;5.15;;;;;;;;;;5069732;28;20144;-76
2022/11/19 12:21:50;;;;;;;7.85;4.63;;;;;;;;;;5076877;28;20049;-75
2022/11/19 12:24:18;;;;;;;8.25;5.32;;;;;;;;;;5071914;28;20053;-75
2022/11/19 12:26:48;;;;;;;8.23;4.40;;;;;;;;;;5069985;28;20626;-75
2022/11/19 12:29:34;;;;;;;13.02;5.30;;;;;;;;;;5063287;28;20048;-75
2022/11/19 12:32:23;;;;;;;12.10;6.30;;;;;;;;;;5088451;28;20048;-75
2022/11/19 12:34:59;;;;;;;12.32;6.70;;;;;;;;;;5067671;28;20088;-75
2022/11/19 12:37:39;;;;;;;9.98;5.68;;;;;;;;;;5071268;28;20049;-75
2022/11/19 12:40:30;;;;;;;10.73;6.35;;;;;;;;;;5070235;28;20407;-75
2022/11/19 12:43:24;;;;;;;11.18;6.07;;;;;;;;;;5076474;28;20052;-75
2022/11/19 12:45:57;;;;;;;10.32;6.20;;;;;;;;;;5089852;28;20102;-75
2022/11/19 12:48:42;;;;;;;10.48;5.18;;;;;;;;;;5075374;28;20049;-74
2022/11/19 12:51:20;;;;;;;4.80;2.80;;;;;;;;;;5069356;28;20060;-75
2022/11/19 12:53:48;;;;;;;6.82;3.92;;;;;;;;;;5079275;28;20057;-74
2022/11/19 12:56:16;;;;;;;11.88;6.50;;;;;;;;;;5071391;28;20103;-74
2022/11/19 12:58:53;;;;;;;13.48;5.68;;;;;;;;;;5060904;28;20049;-75
2022/11/19 13:01:23;;;;;;;11.43;5.72;;;;;;;;;;5079185;28;20053;-74
2022/11/19 13:04:02;;;;;;;9.98;5.32;;;;;;;;;;5073919;28;20107;-75
2022/11/19 13:06:34;;;;;;;11.80;6.10;;;;;;;;;;5070370;28;20099;-75
2022/11/19 13:09:03;;;;;;;10.50;5.78;;;;;;;;;;5072203;28;20056;-75
2022/11/19 13:11:38;;;;;;;10.73;5.72;;;;;;;;;;5068199;28;20052;-74
2022/11/19 13:14:11;;;;;;;8.38;4.75;;;;;;;;;;5076537;28;20056;-75
2022/11/19 13:16:41;;;;;;;6.57;4.22;;;;;;;;;;5074086;28;20562;-74
2022/11/19 13:19:19;;;;;;;8.60;4.78;;;;;;;;;;5075637;28;20076;-75
2022/11/19 13:21:49;;;;;;;9.70;5.45;;;;;;;;;;5070550;28;20052;-75
2022/11/19 13:24:25;;;;;;;7.53;4.03;;;;;;;;;;5070178;28;20052;-75
2022/11/19 13:26:55;;;;;;;8.27;4.70;;;;;;;;;;5069735;28;20068;-75
2022/11/19 13:29:34;;;;;;;8.65;4.65;;;;;;;;;;5069625;28;20111;-75
2022/11/19 13:32:06;;;;;;;4.55;2.90;;;;;;;;;;5066503;28;20052;-75
2022/11/19 13:34:38;;;;;;;6.40;3.47;;;;;;;;;;5083570;28;20570;-74
2022/11/19 13:37:14;;;;;;;7.65;4.50;;;;;;;;;;5081129;28;20064;-74
2022/11/19 13:40:00;;;;;;;8.50;4.65;;;;;;;;;;5069944;28;20068;-74
2022/11/19 13:45:37;;;;;;;7.68;4.20;;;;;;;;;;5071160;28;20134;-75
2022/11/19 13:48:25;;;;;;;8.98;4.53;;;;;;;;;;5079748;28;20131;-75
2022/11/19 13:50:53;;;;;;;9.43;4.63;;;;;;;;;;5073343;28;20081;-75
2022/11/19 13:53:31;;;;;;;8.27;4.45;;;;;;;;;;5075514;28;20049;-75
2022/11/19 13:55:59;;;;;;;7.32;4.07;;;;;;;;;;5075902;28;20140;-74
2022/11/19 13:58:29;;;;;;;9.05;4.30;;;;;;;;;;5062822;28;20075;-75
2022/11/19 14:01:06;;;;;;;7.00;4.13;;;;;;;;;;5064951;28;20060;-75
2022/11/19 14:03:56;;;;;;;9.00;4.55;;;;;;;;;;5063079;28;20504;-75
2022/11/19 14:06:23;;;;;;;8.93;4.20;;;;;;;;;;5073588;28;20549;-75
2022/11/19 14:09:09;;;;;;;9.02;4.38;;;;;;;;;;5072775;28;20060;-74
2022/11/19 14:11:36;;;;;;;9.10;4.30;;;;;;;;;;5072718;28;20056;-74
2022/11/19 14:28:43;;;;;;;7.38;4.18;;;;;;;;;;5078144;28;20041;-75
2022/11/19 14:31:11;;;;;;;6.40;3.53;;;;;;;;;;5086599;28;20592;-75
2022/11/19 14:33:42;;;;;;;6.88;3.85;;;;;;;;;;5063756;28;20045;-75
2022/11/19 14:36:21;;;;;;;5.72;3.30;;;;;;;;;;5077853;28;20512;-75
2022/11/19 14:38:56;;;;;;;11.60;4.32;;;;;;;;;;5078969;28;20045;-75
2022/11/19 14:41:52;;;;;;;9.10;3.92;;;;;;;;;;5087146;28;20462;-74
2022/11/19 14:44:26;;;;;;;8.43;4.07;;;;;;;;;;5061724;28;20075;-75
2022/11/19 14:46:53;;;;;;;9.50;4.50;;;;;;;;;;5082960;28;20056;-75
2022/11/19 14:49:20;;;;;;;6.88;3.67;;;;;;;;;;5082889;28;20102;-74
2022/11/19 14:51:51;;;;;;;7.55;4.00;;;;;;;;;;5080905;28;20139;-75
2022/11/19 14:54:38;;;;;;;6.85;3.92;;;;;;;;;;5081307;28;20099;-74
2022/11/19 14:57:17;;;;;;;8.80;4.50;;;;;;;;;;5077693;28;20048;-75
2022/11/19 14:59:46;;;;;;;7.10;4.13;;;;;;;;;;5084980;28;20180;-74
2022/11/19 15:02:22;;;;;;;13.98;4.18;;;;;;;;;;5064141;28;20430;-74
2022/11/19 15:05:01;;;;;;;8.30;4.28;;;;;;;;;;5075466;28;20518;-75
2022/11/19 15:07:37;;;;;;;7.80;4.00;;;;;;;;;;5081596;28;20172;-75
2022/11/19 15:10:09;;;;;;;8.10;3.80;;;;;;;;;;5062168;28;20075;-75
2022/11/19 15:12:42;;;;;;;8.05;4.63;;;;;;;;;;5085458;28;20424;-75
2022/11/19 15:15:38;;;;;;;7.93;3.90;;;;;;;;;;5081476;28;20056;-75
2022/11/19 15:18:25;;;;;;;10.35;4.50;;;;;;;;;;5073086;28;20080;-75
2022/11/19 15:21:06;;;;;;;7.05;4.18;;;;;;;;;;5081924;28;20401;-74
2022/11/19 15:23:41;;;;;;;8.68;4.32;;;;;;;;;;5076655;28;20536;-75
2022/11/19 15:26:20;;;;;;;;;;;;;;;;;;5070557;28;20057;-75
2022/11/19 15:28:58;;;;;;;13.23;3.83;;;;;;;;;;5072165;28;44744;-74